Maratha Promise — V7YE5 — position and weather

sailwx.info

Track history (hours):
 
Tides and Currents Weather Stations Pressure Air Temp Water Temp Dewpoint Dewpoint Depression Visibility Wind Speed Wind Dir Waves Ship Positions

Maratha Promise

Last reported at 2016-Jul-16 14:26 UTC. Time now 2016-Jul-26 06:20 UTC.
Position N 45°45' W 125°25'.
Warning: this ship's position is 9 days out of date.

Length 178 m; draft 11.1 m.

Type: Cargo ship. MMSI: 538004641.

Date/timePositionNaut miles runAvg speedWind from/ knotsBaromVisibWave heightAir tempDewpointWater temp
2016-Jul-16 14:26N 45°45' W 125°25'8 9.7
2016-Jul-16 13:34N 45°46' W 125°13'10 9.9
2016-Jul-16 12:33N 45°50' W 125°00'1010.4
2016-Jul-16 11:34N 45°56' W 124°48'1110.7
2016-Jul-16 10:34N 46°01' W 124°35'1010.5
2016-Jul-16 09:33N 46°07' W 124°22'1010.4
2016-Jul-16 08:34N 46°13' W 124°09'10 9.6
2016-Jul-16 07:33N 46°12' W 123°55'9 8.8
2016-Jul-16 06:34N 46°14' W 123°43'15 7.7
2016-Jul-16 04:34N 46°09' W 123°22'1111.1
2016-Jul-16 03:33N 46°11' W 123°07'1110.8
2016-Jul-16 02:33N 46°05' W 122°54'1110.7
2016-Jul-16 01:34N 45°55' W 122°49'1111.3
2016-Jul-16 00:33N 45°44' W 122°46'6 6.4
2016-Jul-15 23:33N 45°38' W 122°42'0 0.0
2016-Jul-15 22:34N 45°38' W 122°42'0 0.0
2016-Jul-15 21:30N 45°38' W 122°42'0 0.0
2016-Jul-15 20:31N 45°38' W 122°42'0 0.0
2016-Jul-15 19:31N 45°38' W 122°42'0 0.0
2016-Jul-15 18:34N 45°38' W 122°42'0 0.0
2016-Jul-15 17:33N 45°38' W 122°42'0 0.0
2016-Jul-15 16:33N 45°38' W 122°42'0 0.0
2016-Jul-15 15:34N 45°38' W 122°42'0 0.0
2016-Jul-15 14:30N 45°38' W 122°42'0 0.0
2016-Jul-15 13:33N 45°38' W 122°42'0 0.0
2016-Jul-15 12:34N 45°38' W 122°42'0 0.0
2016-Jul-15 11:24N 45°38' W 122°42'0 0.0
2016-Jul-15 10:31N 45°38' W 122°42'0 0.0
2016-Jul-15 09:28N 45°38' W 122°42'0 0.0
2016-Jul-15 08:34N 45°38' W 122°42'0 0.0
2016-Jul-15 07:34N 45°38' W 122°42'0 0.0
2016-Jul-15 06:34N 45°38' W 122°42'0 0.0
2016-Jul-15 05:28N 45°38' W 122°42'0 0.0
2016-Jul-15 04:31N 45°38' W 122°42'0 0.0
2016-Jul-15 03:34N 45°38' W 122°42'0 0.0
2016-Jul-15 02:22N 45°38' W 122°42'0 0.0
2016-Jul-15 01:31N 45°38' W 122°42'0 0.0
2016-Jul-15 00:31N 45°38' W 122°42'0 0.0
2016-Jul-14 23:31N 45°38' W 122°42'0 0.0
2016-Jul-14 22:31N 45°38' W 122°42'0 0.0
2016-Jul-14 21:25N 45°38' W 122°42'0 0.0
2016-Jul-14 20:31N 45°38' W 122°42'0 0.0
2016-Jul-14 19:31N 45°38' W 122°42'0 0.0
2016-Jul-14 18:31N 45°38' W 122°42'0 0.0
2016-Jul-14 17:31N 45°38' W 122°42'0 0.0
2016-Jul-14 16:25N 45°38' W 122°42'0 0.0
2016-Jul-14 15:34N 45°38' W 122°42'0 0.0
2016-Jul-14 14:31N 45°38' W 122°42'0 0.0
2016-Jul-14 13:22N 45°38' W 122°42'2 2.0
2016-Jul-14 12:32N 45°38' W 122°44'0 0.0
2016-Jul-14 11:32N 45°38' W 122°44'0 0.0
2016-Jul-14 10:29N 45°38' W 122°44'0 0.0
2016-Jul-14 09:32N 45°38' W 122°44'0 0.1
2016-Jul-14 08:32N 45°38' W 122°44'0 0.1
2016-Jul-14 07:32N 45°38' W 122°44'0 0.0
2016-Jul-14 06:32N 45°38' W 122°44'0 0.0
2016-Jul-14 05:32N 45°38' W 122°44'0 0.0
2016-Jul-14 04:32N 45°38' W 122°44'0 0.0
2016-Jul-14 03:32N 45°38' W 122°44'0 0.0
2016-Jul-14 02:29N 45°38' W 122°44'0 0.0
2016-Jul-14 01:32N 45°38' W 122°44'0 0.0
2016-Jul-14 00:29N 45°38' W 122°44'0 0.0
2016-Jul-13 23:32N 45°38' W 122°44'0 0.0
2016-Jul-13 22:32N 45°38' W 122°44'0 0.0
2016-Jul-13 21:32N 45°38' W 122°44'0 0.0
2016-Jul-13 20:29N 45°38' W 122°44'0 0.0
2016-Jul-13 19:32N 45°38' W 122°44'0 0.0
2016-Jul-13 18:32N 45°38' W 122°44'0 0.0
2016-Jul-13 17:23N 45°38' W 122°44'0 0.0
2016-Jul-13 16:32N 45°38' W 122°44'0 0.0
2016-Jul-13 15:29N 45°38' W 122°44'0 0.0
2016-Jul-13 14:32N 45°38' W 122°44'0 0.0
2016-Jul-13 13:32N 45°38' W 122°44'0 0.0
2016-Jul-13 12:29N 45°38' W 122°44'0 0.0
2016-Jul-13 11:32N 45°38' W 122°44'0 0.0
2016-Jul-13 10:32N 45°38' W 122°44'0 0.0
2016-Jul-13 09:32N 45°38' W 122°44'0 0.0
2016-Jul-13 08:32N 45°38' W 122°44'0 0.1
2016-Jul-13 07:32N 45°38' W 122°44'0 0.0
2016-Jul-13 06:29N 45°38' W 122°44'0 0.1
2016-Jul-13 05:32N 45°38' W 122°44'0 0.1
2016-Jul-13 04:32N 45°38' W 122°44'0 0.0
2016-Jul-13 03:32N 45°38' W 122°44'0 0.0
2016-Jul-13 02:32N 45°38' W 122°44'0 0.0
2016-Jul-13 01:32N 45°38' W 122°44'0 0.0
2016-Jul-13 00:32N 45°38' W 122°44'0 0.0
2016-Jul-12 23:32N 45°38' W 122°44'0 0.0
2016-Jul-12 22:32N 45°38' W 122°44'0 0.0
2016-Jul-12 21:32N 45°38' W 122°44'0 0.0
2016-Jul-12 20:32N 45°38' W 122°44'0 0.0
2016-Jul-12 19:32N 45°38' W 122°44'0 0.0
2016-Jul-12 18:32N 45°38' W 122°44'0 0.0
2016-Jul-12 17:32N 45°38' W 122°44'0 0.0
2016-Jul-12 16:29N 45°38' W 122°44'0 0.0
2016-Jul-12 15:29N 45°38' W 122°44'0 0.0
2016-Jul-12 14:32N 45°38' W 122°44'0 0.0
2016-Jul-12 13:32N 45°38' W 122°44'0 0.0
2016-Jul-12 12:32N 45°38' W 122°44'0 0.0
2016-Jul-12 11:32N 45°38' W 122°44'0 0.0
2016-Jul-12 10:32N 45°38' W 122°44'0 0.0
2016-Jul-12 09:32N 45°38' W 122°44'0 0.0
2016-Jul-12 08:32N 45°38' W 122°44'0 0.1
2016-Jul-12 07:32N 45°38' W 122°44'0 0.0
2016-Jul-12 06:32N 45°38' W 122°44'2 1.7
2016-Jul-12 05:33N 45°39' W 122°46'1010.4
2016-Jul-12 04:33N 45°50' W 122°48'1211.9
2016-Jul-12 03:33N 46°01' W 122°52'1010.5
2016-Jul-12 02:33N 46°09' W 123°02'1111.4
2016-Jul-12 01:33N 46°09' W 123°19'1110.6
2016-Jul-12 00:33N 46°16' W 123°29'1413.6
2016-Jul-11 23:34N 46°12' W 123°48'1111.2
2016-Jul-11 22:33N 46°15' W 124°03'1312.5
2016-Jul-11 21:33N 46°06' W 124°15'1212.0
2016-Jul-11 20:33N 45°58' W 124°28'1211.8
2016-Jul-11 19:33N 45°54' W 124°44'1211.9
2016-Jul-11 18:33N 45°50' W 125°00'1212.5
2016-Jul-11 17:33N 45°46' W 125°17'1312.6
2016-Jul-11 16:32N 45°41' W 125°35'7 7.0
2016-Jul-11 15:31N 45°39' W 125°44'98 8.0
2016-Jul-11 03:17N 44°04' W 126°14'370 7.9
2016-Jul-09 04:14N 37°58' W 124°57'911.1
2016-Jul-09 03:28N 37°51' W 124°51'1311.6
2016-Jul-09 02:23N 37°41' W 124°41'1012.1
2016-Jul-09 01:31N 37°32' W 124°34'1010.6
2016-Jul-09 00:33N 37°29' W 124°22'1211.7
2016-Jul-08 23:33N 37°29' W 124°07'1211.7
2016-Jul-08 22:33N 37°29' W 123°52'1111.5
2016-Jul-08 21:33N 37°29' W 123°38'1111.1
2016-Jul-08 20:33N 37°29' W 123°24'1111.1
2016-Jul-08 19:33N 37°31' W 123°10'1211.7
2016-Jul-08 18:33N 37°37' W 122°58'1211.8
2016-Jul-08 17:33N 37°44' W 122°45'1111.1
2016-Jul-08 16:33N 37°48' W 122°32'1110.4
2016-Jul-08 15:31N 37°58' W 122°27'1312.7
2016-Jul-08 14:28N 38°03' W 122°11'9 9.3
2016-Jul-08 13:32N 38°04' W 121°60'7 6.8
2016-Jul-08 12:32N 38°02' W 121°52'0 0.0
2016-Jul-08 11:26N 38°02' W 121°52'0 0.0
2016-Jul-08 10:32N 38°02' W 121°52'0 0.0
2016-Jul-08 09:32N 38°02' W 121°52'0 0.0
2016-Jul-08 08:32N 38°02' W 121°52'0 0.0
2016-Jul-08 07:32N 38°02' W 121°52'0 0.0
2016-Jul-08 06:26N 38°02' W 121°52'0 0.0
2016-Jul-08 04:29N 38°02' W 121°52'0 0.0
2016-Jul-08 03:29N 38°02' W 121°52'0 0.0
2016-Jul-08 02:32N 38°02' W 121°52'0 0.0
2016-Jul-08 01:29N 38°02' W 121°52'0 0.0
2016-Jul-08 00:23N 38°02' W 121°52'0 0.0
2016-Jul-07 23:32N 38°02' W 121°52'0 0.0
2016-Jul-07 22:32N 38°02' W 121°52'0 0.0
2016-Jul-07 21:32N 38°02' W 121°52'0 0.0
2016-Jul-07 20:29N 38°02' W 121°52'0 0.0
2016-Jul-07 18:26N 38°02' W 121°52'0 0.0
2016-Jul-07 17:17N 38°02' W 121°52'0 0.0
2016-Jul-07 15:20N 38°02' W 121°52'0 0.0
2016-Jul-07 14:32N 38°02' W 121°52'0 0.0
2016-Jul-07 13:32N 38°02' W 121°52'0 0.0
2016-Jul-07 12:32N 38°02' W 121°52'0 0.0
2016-Jul-07 11:29N 38°02' W 121°52'0 0.0
2016-Jul-07 10:32N 38°02' W 121°52'0 0.0
2016-Jul-07 09:23N 38°02' W 121°52'0 0.0
2016-Jul-07 08:29N 38°02' W 121°52'0 0.0
2016-Jul-07 07:32N 38°02' W 121°52'0 0.0
2016-Jul-07 06:32N 38°02' W 121°52'0 0.0
2016-Jul-07 05:29N 38°02' W 121°52'0 0.0
2016-Jul-07 04:32N 38°02' W 121°52'0 0.0
2016-Jul-07 03:32N 38°02' W 121°52'0 0.0
2016-Jul-07 02:32N 38°02' W 121°52'0 0.0
2016-Jul-07 00:23N 38°02' W 121°52'0 0.0
2016-Jul-06 23:29N 38°02' W 121°52'0 0.0
2016-Jul-06 22:32N 38°02' W 121°52'0 0.0
2016-Jul-06 20:32N 38°02' W 121°52'0 0.0
2016-Jul-06 19:20N 38°02' W 121°52'0 0.0
2016-Jul-06 16:26N 38°02' W 121°52'0 0.0
2016-Jul-06 15:26N 38°02' W 121°52'0 0.0
2016-Jul-06 14:29N 38°02' W 121°52'  
Track history (hours):
 
Tides and Currents Weather Stations Pressure Air Temp Water Temp Dewpoint Dewpoint Depression Visibility Wind Speed Wind Dir Waves Ship Positions

Maratha Promise

Last reported at 2016-Jul-16 14:26 UTC. Time now 2016-Jul-26 06:20 UTC.
Position N 45°45' W 125°25'.
Warning: this ship's position is 9 days out of date.

Length 178 m; draft 11.1 m.

Type: Cargo ship. MMSI: 538004641.

Date/timePositionNaut miles runAvg speedWind from/ knotsBaromVisibWave heightAir tempDewpointWater temp
2016-Jul-16 14:26N 45°45' W 125°25'8 9.7
2016-Jul-16 13:34N 45°46' W 125°13'10 9.9
2016-Jul-16 12:33N 45°50' W 125°00'1010.4
2016-Jul-16 11:34N 45°56' W 124°48'1110.7
2016-Jul-16 10:34N 46°01' W 124°35'1010.5
2016-Jul-16 09:33N 46°07' W 124°22'1010.4
2016-Jul-16 08:34N 46°13' W 124°09'10 9.6
2016-Jul-16 07:33N 46°12' W 123°55'9 8.8
2016-Jul-16 06:34N 46°14' W 123°43'15 7.7
2016-Jul-16 04:34N 46°09' W 123°22'1111.1
2016-Jul-16 03:33N 46°11' W 123°07'1110.8
2016-Jul-16 02:33N 46°05' W 122°54'1110.7
2016-Jul-16 01:34N 45°55' W 122°49'1111.3
2016-Jul-16 00:33N 45°44' W 122°46'6 6.4
2016-Jul-15 23:33N 45°38' W 122°42'0 0.0
2016-Jul-15 22:34N 45°38' W 122°42'0 0.0
2016-Jul-15 21:30N 45°38' W 122°42'0 0.0
2016-Jul-15 20:31N 45°38' W 122°42'0 0.0
2016-Jul-15 19:31N 45°38' W 122°42'0 0.0
2016-Jul-15 18:34N 45°38' W 122°42'0 0.0
2016-Jul-15 17:33N 45°38' W 122°42'0 0.0
2016-Jul-15 16:33N 45°38' W 122°42'0 0.0
2016-Jul-15 15:34N 45°38' W 122°42'0 0.0
2016-Jul-15 14:30N 45°38' W 122°42'0 0.0
2016-Jul-15 13:33N 45°38' W 122°42'0 0.0
2016-Jul-15 12:34N 45°38' W 122°42'0 0.0
2016-Jul-15 11:24N 45°38' W 122°42'0 0.0
2016-Jul-15 10:31N 45°38' W 122°42'0 0.0
2016-Jul-15 09:28N 45°38' W 122°42'0 0.0
2016-Jul-15 08:34N 45°38' W 122°42'0 0.0
2016-Jul-15 07:34N 45°38' W 122°42'0 0.0
2016-Jul-15 06:34N 45°38' W 122°42'0 0.0
2016-Jul-15 05:28N 45°38' W 122°42'0 0.0
2016-Jul-15 04:31N 45°38' W 122°42'0 0.0
2016-Jul-15 03:34N 45°38' W 122°42'0 0.0
2016-Jul-15 02:22N 45°38' W 122°42'0 0.0
2016-Jul-15 01:31N 45°38' W 122°42'0 0.0
2016-Jul-15 00:31N 45°38' W 122°42'0 0.0
2016-Jul-14 23:31N 45°38' W 122°42'0 0.0
2016-Jul-14 22:31N 45°38' W 122°42'0 0.0
2016-Jul-14 21:25N 45°38' W 122°42'0 0.0
2016-Jul-14 20:31N 45°38' W 122°42'0 0.0
2016-Jul-14 19:31N 45°38' W 122°42'0 0.0
2016-Jul-14 18:31N 45°38' W 122°42'0 0.0
2016-Jul-14 17:31N 45°38' W 122°42'0 0.0
2016-Jul-14 16:25N 45°38' W 122°42'0 0.0
2016-Jul-14 15:34N 45°38' W 122°42'0 0.0
2016-Jul-14 14:31N 45°38' W 122°42'0 0.0
2016-Jul-14 13:22N 45°38' W 122°42'2 2.0
2016-Jul-14 12:32N 45°38' W 122°44'0 0.0
2016-Jul-14 11:32N 45°38' W 122°44'0 0.0
2016-Jul-14 10:29N 45°38' W 122°44'0 0.0
2016-Jul-14 09:32N 45°38' W 122°44'0 0.1
2016-Jul-14 08:32N 45°38' W 122°44'0 0.1
2016-Jul-14 07:32N 45°38' W 122°44'0 0.0
2016-Jul-14 06:32N 45°38' W 122°44'0 0.0
2016-Jul-14 05:32N 45°38' W 122°44'0 0.0
2016-Jul-14 04:32N 45°38' W 122°44'0 0.0
2016-Jul-14 03:32N 45°38' W 122°44'0 0.0
2016-Jul-14 02:29N 45°38' W 122°44'0 0.0
2016-Jul-14 01:32N 45°38' W 122°44'0 0.0
2016-Jul-14 00:29N 45°38' W 122°44'0 0.0
2016-Jul-13 23:32N 45°38' W 122°44'0 0.0
2016-Jul-13 22:32N 45°38' W 122°44'0 0.0
2016-Jul-13 21:32N 45°38' W 122°44'0 0.0
2016-Jul-13 20:29N 45°38' W 122°44'0 0.0
2016-Jul-13 19:32N 45°38' W 122°44'0 0.0
2016-Jul-13 18:32N 45°38' W 122°44'0 0.0
2016-Jul-13 17:23N 45°38' W 122°44'0 0.0
2016-Jul-13 16:32N 45°38' W 122°44'0 0.0
2016-Jul-13 15:29N 45°38' W 122°44'0 0.0
2016-Jul-13 14:32N 45°38' W 122°44'0 0.0
2016-Jul-13 13:32N 45°38' W 122°44'0 0.0
2016-Jul-13 12:29N 45°38' W 122°44'0 0.0
2016-Jul-13 11:32N 45°38' W 122°44'0 0.0
2016-Jul-13 10:32N 45°38' W 122°44'0 0.0
2016-Jul-13 09:32N 45°38' W 122°44'0 0.0
2016-Jul-13 08:32N 45°38' W 122°44'0 0.1
2016-Jul-13 07:32N 45°38' W 122°44'0 0.0
2016-Jul-13 06:29N 45°38' W 122°44'0 0.1
2016-Jul-13 05:32N 45°38' W 122°44'0 0.1
2016-Jul-13 04:32N 45°38' W 122°44'0 0.0
2016-Jul-13 03:32N 45°38' W 122°44'0 0.0
2016-Jul-13 02:32N 45°38' W 122°44'0 0.0
2016-Jul-13 01:32N 45°38' W 122°44'0 0.0
2016-Jul-13 00:32N 45°38' W 122°44'0 0.0
2016-Jul-12 23:32N 45°38' W 122°44'0 0.0
2016-Jul-12 22:32N 45°38' W 122°44'0 0.0
2016-Jul-12 21:32N 45°38' W 122°44'0 0.0
2016-Jul-12 20:32N 45°38' W 122°44'0 0.0
2016-Jul-12 19:32N 45°38' W 122°44'0 0.0
2016-Jul-12 18:32N 45°38' W 122°44'0 0.0
2016-Jul-12 17:32N 45°38' W 122°44'0 0.0
2016-Jul-12 16:29N 45°38' W 122°44'0 0.0
2016-Jul-12 15:29N 45°38' W 122°44'0 0.0
2016-Jul-12 14:32N 45°38' W 122°44'0 0.0
2016-Jul-12 13:32N 45°38' W 122°44'0 0.0
2016-Jul-12 12:32N 45°38' W 122°44'0 0.0
2016-Jul-12 11:32N 45°38' W 122°44'0 0.0
2016-Jul-12 10:32N 45°38' W 122°44'0 0.0
2016-Jul-12 09:32N 45°38' W 122°44'0 0.0
2016-Jul-12 08:32N 45°38' W 122°44'0 0.1
2016-Jul-12 07:32N 45°38' W 122°44'0 0.0
2016-Jul-12 06:32N 45°38' W 122°44'2 1.7
2016-Jul-12 05:33N 45°39' W 122°46'1010.4
2016-Jul-12 04:33N 45°50' W 122°48'1211.9
2016-Jul-12 03:33N 46°01' W 122°52'1010.5
2016-Jul-12 02:33N 46°09' W 123°02'1111.4
2016-Jul-12 01:33N 46°09' W 123°19'1110.6
2016-Jul-12 00:33N 46°16' W 123°29'1413.6
2016-Jul-11 23:34N 46°12' W 123°48'1111.2
2016-Jul-11 22:33N 46°15' W 124°03'1312.5
2016-Jul-11 21:33N 46°06' W 124°15'1212.0
2016-Jul-11 20:33N 45°58' W 124°28'1211.8
2016-Jul-11 19:33N 45°54' W 124°44'1211.9
2016-Jul-11 18:33N 45°50' W 125°00'1212.5
2016-Jul-11 17:33N 45°46' W 125°17'1312.6
2016-Jul-11 16:32N 45°41' W 125°35'7 7.0
2016-Jul-11 15:31N 45°39' W 125°44'98 8.0
2016-Jul-11 03:17N 44°04' W 126°14'370 7.9
2016-Jul-09 04:14N 37°58' W 124°57'911.1
2016-Jul-09 03:28N 37°51' W 124°51'1311.6
2016-Jul-09 02:23N 37°41' W 124°41'1012.1
2016-Jul-09 01:31N 37°32' W 124°34'1010.6
2016-Jul-09 00:33N 37°29' W 124°22'1211.7
2016-Jul-08 23:33N 37°29' W 124°07'1211.7
2016-Jul-08 22:33N 37°29' W 123°52'1111.5
2016-Jul-08 21:33N 37°29' W 123°38'1111.1
2016-Jul-08 20:33N 37°29' W 123°24'1111.1
2016-Jul-08 19:33N 37°31' W 123°10'1211.7
2016-Jul-08 18:33N 37°37' W 122°58'1211.8
2016-Jul-08 17:33N 37°44' W 122°45'1111.1
2016-Jul-08 16:33N 37°48' W 122°32'1110.4
2016-Jul-08 15:31N 37°58' W 122°27'1312.7
2016-Jul-08 14:28N 38°03' W 122°11'9 9.3
2016-Jul-08 13:32N 38°04' W 121°60'7 6.8
2016-Jul-08 12:32N 38°02' W 121°52'0 0.0
2016-Jul-08 11:26N 38°02' W 121°52'0 0.0
2016-Jul-08 10:32N 38°02' W 121°52'0 0.0
2016-Jul-08 09:32N 38°02' W 121°52'0 0.0
2016-Jul-08 08:32N 38°02' W 121°52'0 0.0
2016-Jul-08 07:32N 38°02' W 121°52'0 0.0
2016-Jul-08 06:26N 38°02' W 121°52'0 0.0
2016-Jul-08 04:29N 38°02' W 121°52'0 0.0
2016-Jul-08 03:29N 38°02' W 121°52'0 0.0
2016-Jul-08 02:32N 38°02' W 121°52'0 0.0
2016-Jul-08 01:29N 38°02' W 121°52'0 0.0
2016-Jul-08 00:23N 38°02' W 121°52'0 0.0
2016-Jul-07 23:32N 38°02' W 121°52'0 0.0
2016-Jul-07 22:32N 38°02' W 121°52'0 0.0
2016-Jul-07 21:32N 38°02' W 121°52'0 0.0
2016-Jul-07 20:29N 38°02' W 121°52'0 0.0
2016-Jul-07 18:26N 38°02' W 121°52'0 0.0
2016-Jul-07 17:17N 38°02' W 121°52'0 0.0
2016-Jul-07 15:20N 38°02' W 121°52'0 0.0
2016-Jul-07 14:32N 38°02' W 121°52'0 0.0
2016-Jul-07 13:32N 38°02' W 121°52'0 0.0
2016-Jul-07 12:32N 38°02' W 121°52'0 0.0
2016-Jul-07 11:29N 38°02' W 121°52'0 0.0
2016-Jul-07 10:32N 38°02' W 121°52'0 0.0
2016-Jul-07 09:23N 38°02' W 121°52'0 0.0
2016-Jul-07 08:29N 38°02' W 121°52'0 0.0
2016-Jul-07 07:32N 38°02' W 121°52'0 0.0
2016-Jul-07 06:32N 38°02' W 121°52'0 0.0
2016-Jul-07 05:29N 38°02' W 121°52'0 0.0
2016-Jul-07 04:32N 38°02' W 121°52'0 0.0
2016-Jul-07 03:32N 38°02' W 121°52'0 0.0
2016-Jul-07 02:32N 38°02' W 121°52'0 0.0
2016-Jul-07 00:23N 38°02' W 121°52'0 0.0
2016-Jul-06 23:29N 38°02' W 121°52'0 0.0
2016-Jul-06 22:32N 38°02' W 121°52'0 0.0
2016-Jul-06 20:32N 38°02' W 121°52'0 0.0
2016-Jul-06 19:20N 38°02' W 121°52'0 0.0
2016-Jul-06 16:26N 38°02' W 121°52'0 0.0
2016-Jul-06 15:26N 38°02' W 121°52'0 0.0
2016-Jul-06 14:29N 38°02' W 121°52'  

Dump ship's entire track history